Time;durP1;ratioP1;P1;durP2;ratioP2;P2;SDS_P1;SDS_P2;PMS_P1;PMS_P2;Temp;Humidity;BMP_temperature;BMP_pressure;BME280_temperature;BME280_humidity;BME280_pressure;Samples;Min_cycle;Max_cycle;Signal;HPM_P1;HPM_P2
2022/03/16 00:00:46;;;;;;;32.20;22.93;;;;;4.40;101777.00;;;;10465049;28;20193;-80
2022/03/16 00:05:48;;;;;;;38.30;25.83;;;;;4.50;101783.00;;;;10492018;28;20193;-80
2022/03/16 00:10:50;;;;;;;43.97;28.00;;;;;4.60;101762.00;;;;10494543;28;20254;-80
2022/03/16 00:15:52;;;;;;;36.50;26.47;;;;;4.70;101760.00;;;;10478135;28;20258;-81
2022/03/16 00:20:55;;;;;;;42.00;27.10;;;;;4.70;101762.00;;;;10494339;28;20203;-80
2022/03/16 00:25:57;;;;;;;44.73;27.47;;;;;4.70;101761.00;;;;10493379;28;20188;-80
2022/03/16 00:30:59;;;;;;;42.90;28.30;;;;;4.80;101757.00;;;;10494616;28;20334;-80
2022/03/16 00:36:01;;;;;;;39.77;28.70;;;;;4.80;101763.00;;;;10510271;28;20232;-80
2022/03/16 00:41:03;;;;;;;43.23;29.70;;;;;4.90;101772.00;;;;10476862;28;20258;-80
2022/03/16 00:46:05;;;;;;;44.10;30.57;;;;;5.00;101768.00;;;;10510800;28;20192;-81
2022/03/16 00:51:09;;;;;;;41.80;27.73;;;;;4.90;101779.00;;;;10493888;28;20219;-80
2022/03/16 00:56:12;;;;;;;39.97;26.73;;;;;4.80;101764.00;;;;10476564;28;20663;-81
2022/03/16 01:01:14;;;;;;;39.70;28.70;;;;;4.70;101757.00;;;;10492983;28;20189;-81
2022/03/16 01:06:17;;;;;;;41.27;28.40;;;;;4.70;101759.00;;;;10497416;28;20536;-81
2022/03/16 01:11:19;;;;;;;37.70;26.80;;;;;4.60;101751.00;;;;10475945;28;20544;-81
2022/03/16 01:16:21;;;;;;;37.40;26.63;;;;;4.50;101749.00;;;;10474938;28;20200;-80
2022/03/16 01:21:23;;;;;;;35.87;26.13;;;;;4.30;101751.00;;;;10508333;28;20193;-81
2022/03/16 01:26:25;;;;;;;37.20;27.10;;;;;4.20;101746.00;;;;10467348;28;20193;-81
2022/03/16 01:31:28;;;;;;;39.27;26.93;;;;;4.10;101749.00;;;;10492198;28;20197;-82
2022/03/16 01:36:30;;;;;;;41.27;28.77;;;;;4.00;101741.00;;;;10492212;28;20269;-81
2022/03/16 01:41:33;;;;;;;43.27;29.30;;;;;4.00;101747.00;;;;10507773;28;20707;-81
2022/03/16 01:46:36;;;;;;;39.83;28.03;;;;;4.00;101736.00;;;;10491373;28;20246;-81
2022/03/16 01:51:38;;;;;;;50.90;33.20;;;;;4.10;101746.00;;;;10507864;28;20211;-82
2022/03/16 01:56:40;;;;;;;45.93;31.20;;;;;4.10;101725.00;;;;10508167;28;20201;-80
2022/03/16 02:01:43;;;;;;;50.47;32.70;;;;;4.10;101734.00;;;;10475947;28;20571;-81
2022/03/16 02:06:47;;;;;;;39.53;28.97;;;;;4.00;101726.00;;;;10508275;28;20189;-81
2022/03/16 02:11:49;;;;;;;42.40;29.33;;;;;3.80;101739.00;;;;10474586;28;20649;-80
2022/03/16 02:16:51;;;;;;;44.70;29.23;;;;;3.80;101738.00;;;;10474679;28;20204;-80
2022/03/16 02:21:57;;;;;;;49.33;32.97;;;;;3.80;101744.00;;;;10490780;28;20192;-80
2022/03/16 02:26:59;;;;;;;47.97;32.90;;;;;3.90;101734.00;;;;10491082;28;20231;-80
2022/03/16 02:32:01;;;;;;;51.27;32.63;;;;;3.90;101744.00;;;;10490564;28;20193;-80
2022/03/16 02:37:03;;;;;;;45.40;31.77;;;;;3.80;101736.00;;;;10467566;28;20215;-81
2022/03/16 02:42:06;;;;;;;42.53;30.00;;;;;3.80;101744.00;;;;10473850;28;20217;-81
2022/03/16 02:47:08;;;;;;;44.87;29.97;;;;;3.80;101740.00;;;;10490634;28;20234;-81
2022/03/16 02:52:11;;;;;;;43.70;31.47;;;;;3.80;101740.00;;;;10482365;28;20189;-81
2022/03/16 02:57:16;;;;;;;45.47;31.70;;;;;3.70;101733.00;;;;10490265;28;20266;-81
2022/03/16 03:02:17;;;;;;;49.23;29.33;;;;;3.60;101729.00;;;;10491371;28;20200;-81
2022/03/16 03:07:19;;;;;;;41.97;27.73;;;;;3.60;101728.00;;;;10472111;28;20250;-81
2022/03/16 03:12:21;;;;;;;39.03;28.20;;;;;3.50;101724.00;;;;10489670;28;20290;-81
2022/03/16 03:17:25;;;;;;;37.73;26.30;;;;;3.50;101708.00;;;;10506577;28;20212;-81
2022/03/16 03:22:28;;;;;;;45.37;28.27;;;;;3.40;101697.00;;;;10472695;28;20183;-81
2022/03/16 03:27:33;;;;;;;43.80;28.33;;;;;3.40;101693.00;;;;10489268;28;20188;-81
2022/03/16 03:32:35;;;;;;;39.43;28.07;;;;;3.50;101694.00;;;;10488826;28;20223;-81
2022/03/16 03:37:37;;;;;;;45.50;29.80;;;;;3.60;101687.00;;;;10489684;28;20215;-81
2022/03/16 03:42:39;;;;;;;44.63;28.20;;;;;3.80;101693.00;;;;10495323;28;20200;-81
2022/03/16 03:47:41;;;;;;;54.37;33.67;;;;;4.00;101682.00;;;;10513405;28;20193;-81
2022/03/16 03:52:42;;;;;;;51.03;33.90;;;;;4.20;101671.00;;;;10526192;28;20193;-81
2022/03/16 03:57:46;;;;;;;47.10;30.40;;;;;4.20;101659.00;;;;10463582;28;20194;-81
2022/03/16 04:02:49;;;;;;;45.90;30.83;;;;;4.30;101666.00;;;;10480551;28;20242;-81
2022/03/16 04:07:52;;;;;;;48.97;30.17;;;;;4.50;101662.00;;;;10511589;28;20674;-81
2022/03/16 04:12:53;;;;;;;48.23;31.13;;;;;4.60;101655.00;;;;10479691;28;20193;-81
2022/03/16 04:17:55;;;;;;;44.57;29.87;;;;;4.60;101643.00;;;;10494857;28;20783;-81
2022/03/16 04:22:57;;;;;;;44.07;26.43;;;;;4.70;101652.00;;;;10495069;28;20294;-81
2022/03/16 04:27:59;;;;;;;39.70;27.03;;;;;4.80;101647.00;;;;10479514;28;20193;-81
2022/03/16 04:33:01;;;;;;;41.53;28.07;;;;;4.80;101650.00;;;;10469872;28;20717;-81
2022/03/16 04:38:03;;;;;;;37.63;26.03;;;;;4.90;101649.00;;;;10439033;28;20260;-81
2022/03/16 04:43:05;;;;;;;40.70;27.83;;;;;4.90;101644.00;;;;10508337;28;20192;-81
2022/03/16 04:48:11;;;;;;;39.20;27.17;;;;;5.00;101636.00;;;;10494288;28;20207;-81
2022/03/16 04:53:13;;;;;;;41.73;28.47;;;;;5.00;101640.00;;;;10492409;28;20185;-81
2022/03/16 04:58:15;;;;;;;40.07;26.10;;;;;5.10;101642.00;;;;10494234;28;20205;-81
2022/03/16 05:03:17;;;;;;;38.63;26.30;;;;;5.10;101635.00;;;;10476841;28;20539;-81
2022/03/16 05:08:19;;;;;;;36.20;24.27;;;;;5.10;101625.00;;;;10469009;28;20206;-81
2022/03/16 05:13:21;;;;;;;35.53;24.03;;;;;5.20;101618.00;;;;10467254;28;20193;-80
2022/03/16 05:18:25;;;;;;;39.40;27.33;;;;;5.20;101605.00;;;;10493226;28;20205;-81
2022/03/16 05:23:27;;;;;;;36.30;23.73;;;;;5.30;101597.00;;;;10492778;28;20189;-81
2022/03/16 05:28:29;;;;;;;35.57;24.60;;;;;5.30;101603.00;;;;10509818;28;20253;-81
2022/03/16 05:33:31;;;;;;;33.90;22.67;;;;;5.40;101594.00;;;;10452063;28;20197;-81
2022/03/16 05:38:32;;;;;;;36.97;23.47;;;;;5.40;101595.00;;;;10475738;28;20221;-81
2022/03/16 05:43:34;;;;;;;37.03;23.90;;;;;5.50;101597.00;;;;10475471;28;20193;-82
2022/03/16 05:48:36;;;;;;;34.97;22.97;;;;;5.50;101608.00;;;;10487555;28;20193;-82
2022/03/16 05:53:38;;;;;;;30.03;21.97;;;;;5.50;101607.00;;;;10508092;28;20249;-82
2022/03/16 05:58:40;;;;;;;33.87;22.30;;;;;5.50;101618.00;;;;10491593;28;20231;-82
2022/03/16 06:03:42;;;;;;;31.43;21.70;;;;;5.40;101620.00;;;;10490125;28;20208;-82
2022/03/16 06:08:44;;;;;;;32.73;22.97;;;;;5.40;101620.00;;;;10508735;28;20192;-82
2022/03/16 06:13:46;;;;;;;32.90;24.40;;;;;5.40;101622.00;;;;10541319;28;20249;-83
2022/03/16 06:18:48;;;;;;;30.53;20.80;;;;;5.40;101625.00;;;;10483807;28;20204;-80
2022/03/16 06:23:50;;;;;;;31.77;21.23;;;;;5.40;101633.00;;;;10486766;28;20250;-80
2022/03/16 06:28:52;;;;;;;33.03;21.07;;;;;5.50;101635.00;;;;10505393;28;20208;-81
2022/03/16 06:33:54;;;;;;;30.83;21.30;;;;;5.60;101632.00;;;;10482383;28;20201;-81
2022/03/16 06:38:57;;;;;;;30.13;20.53;;;;;5.70;101635.00;;;;10490800;28;20235;-81
2022/03/16 06:43:58;;;;;;;31.80;20.57;;;;;5.80;101629.00;;;;10507459;28;20200;-81
2022/03/16 06:49:00;;;;;;;28.97;19.73;;;;;5.80;101631.00;;;;10506608;28;20288;-81
2022/03/16 06:54:02;;;;;;;31.23;21.70;;;;;5.80;101633.00;;;;10472658;28;20196;-81
2022/03/16 06:59:04;;;;;;;32.33;21.70;;;;;5.80;101638.00;;;;10485778;28;20262;-80
2022/03/16 07:04:06;;;;;;;31.37;20.57;;;;;6.00;101632.00;;;;10483733;28;20192;-80
2022/03/16 07:09:08;;;;;;;26.20;19.03;;;;;6.30;101632.00;;;;10455521;28;20182;-81
2022/03/16 07:19:31;;;;;;;28.30;19.00;;;;;6.90;101654.00;;;;10484524;28;20245;-80
2022/03/16 07:24:33;;;;;;;31.73;20.50;;;;;7.20;101646.00;;;;10468960;28;20215;-79
2022/03/16 07:29:35;;;;;;;24.23;18.07;;;;;7.60;101649.00;;;;10505308;28;20287;-80
2022/03/16 07:34:37;;;;;;;24.47;18.67;;;;;7.90;101651.00;;;;10500920;28;20193;-79
2022/03/16 07:39:39;;;;;;;23.20;18.40;;;;;8.10;101652.00;;;;10497209;28;20221;-80
2022/03/16 07:44:41;;;;;;;24.77;19.07;;;;;8.40;101654.00;;;;10463454;28;20655;-80
2022/03/16 07:49:43;;;;;;;21.80;16.77;;;;;8.50;101656.00;;;;10478630;28;20196;-79
2022/03/16 07:54:45;;;;;;;21.23;16.83;;;;;8.70;101669.00;;;;10465168;28;20276;-81
2022/03/16 07:59:46;;;;;;;23.00;17.67;;;;;8.80;101668.00;;;;10454113;28;20225;-79
2022/03/16 08:04:48;;;;;;;21.97;17.77;;;;;9.00;101673.00;;;;10494519;28;20200;-79
2022/03/16 08:09:50;;;;;;;21.90;15.73;;;;;9.20;101665.00;;;;10504903;28;20208;-78
2022/03/16 08:14:52;;;;;;;22.20;16.60;;;;;9.50;101682.00;;;;10471761;28;20232;-79
2022/03/16 08:19:54;;;;;;;21.27;17.00;;;;;9.80;101676.00;;;;10505191;28;20220;-79
2022/03/16 08:24:58;;;;;;;21.27;15.70;;;;;10.00;101680.00;;;;10497790;28;20194;-78
2022/03/16 08:30:04;;;;;;;19.23;16.13;;;;;10.30;101688.00;;;;10522502;28;20185;-78
2022/03/16 08:35:06;;;;;;;20.13;15.13;;;;;10.60;101688.00;;;;10500879;28;20185;-76
2022/03/16 08:40:08;;;;;;;20.83;15.40;;;;;11.00;101688.00;;;;10484408;28;20220;-79
2022/03/16 08:45:10;;;;;;;18.63;14.97;;;;;11.20;101693.00;;;;10509519;28;20212;-76
2022/03/16 08:50:12;;;;;;;20.70;15.47;;;;;11.50;101708.00;;;;10489816;28;20185;-76
2022/03/16 08:55:15;;;;;;;19.47;14.83;;;;;11.80;101708.00;;;;10503374;28;20209;-77
2022/03/16 09:00:18;;;;;;;17.53;15.13;;;;;12.00;101704.00;;;;10487572;28;20219;-76
2022/03/16 09:05:20;;;;;;;19.60;14.73;;;;;12.50;101711.00;;;;10494333;28;20188;-76
2022/03/16 09:10:22;;;;;;;19.20;14.40;;;;;12.70;101719.00;;;;10491843;28;20238;-77
2022/03/16 09:15:24;;;;;;;17.80;14.23;;;;;12.90;101712.00;;;;10505766;28;20189;-76
2022/03/16 09:20:27;;;;;;;19.00;14.50;;;;;13.20;101704.00;;;;10502539;28;20246;-76
2022/03/16 09:25:29;;;;;;;17.67;14.23;;;;;13.30;101711.00;;;;10497746;28;20189;-76
2022/03/16 09:30:31;;;;;;;18.40;13.93;;;;;13.50;101711.00;;;;10504487;28;20220;-76
2022/03/16 09:35:34;;;;;;;17.77;13.50;;;;;13.50;101711.00;;;;10472181;28;20394;-76
2022/03/16 09:40:36;;;;;;;16.30;13.53;;;;;13.90;101705.00;;;;10514946;28;20270;-76
2022/03/16 09:46:02;;;;;;;16.57;13.17;;;;;14.20;101706.00;;;;10500513;28;20197;-76
2022/03/16 09:51:06;;;;;;;17.77;14.27;;;;;13.90;101711.00;;;;10483866;28;20192;-76
2022/03/16 09:56:09;;;;;;;16.90;14.03;;;;;13.70;101705.00;;;;10520565;28;20262;-77
2022/03/16 10:01:11;;;;;;;16.77;13.67;;;;;13.80;101699.00;;;;10465557;28;20213;-76
2022/03/16 10:06:15;;;;;;;17.20;13.47;;;;;13.70;101705.00;;;;10519667;28;20186;-76
2022/03/16 10:22:54;;;;;;;15.47;13.57;;;;;15.60;101677.00;;;;10454540;28;20204;-76
2022/03/16 10:28:13;;;;;;;14.93;13.07;;;;;16.20;101680.00;;;;10503887;28;20193;-76
2022/03/16 10:33:16;;;;;;;17.03;13.87;;;;;16.50;101684.00;;;;10503766;28;20250;-77
2022/03/16 10:38:21;;;;;;;16.20;13.13;;;;;16.10;101683.00;;;;10444228;28;20217;-76
2022/03/16 10:49:04;;;;;;;15.50;13.00;;;;;16.10;101689.00;;;;10501535;28;20215;-77
2022/03/16 10:54:06;;;;;;;13.67;11.70;;;;;16.30;101695.00;;;;10485826;28;20242;-77
2022/03/16 10:59:08;;;;;;;19.53;12.60;;;;;16.30;101700.00;;;;10501987;28;20217;-76
2022/03/16 11:04:10;;;;;;;18.30;12.67;;;;;16.00;101685.00;;;;10501250;28;20193;-77
2022/03/16 11:09:15;;;;;;;15.63;13.00;;;;;16.00;101687.00;;;;10470127;28;20250;-77
2022/03/16 11:14:20;;;;;;;14.27;11.60;;;;;16.00;101681.00;;;;10511818;28;20184;-76
2022/03/16 11:19:24;;;;;;;15.13;12.60;;;;;15.90;101675.00;;;;10472723;28;20201;-77
2022/03/16 11:24:32;;;;;;;17.43;12.23;;;;;16.00;101676.00;;;;10499680;28;20192;-76
2022/03/16 11:30:08;;;;;;;16.83;12.73;;;;;15.90;101670.00;;;;10503815;28;20199;-77
2022/03/16 11:35:13;;;;;;;18.43;11.50;;;;;16.00;101671.00;;;;10518504;28;20230;-77
2022/03/16 11:40:20;;;;;;;16.90;12.27;;;;;16.10;101668.00;;;;10520074;28;20247;-77
2022/03/16 11:45:43;;;;;;;14.27;11.07;;;;;16.00;101658.00;;;;10503386;28;20288;-76
2022/03/16 11:51:05;;;;;;;20.77;11.77;;;;;15.90;101668.00;;;;10499997;28;20238;-76
2022/03/16 11:56:24;;;;;;;17.03;12.40;;;;;15.90;101663.00;;;;10495779;28;20205;-77
2022/03/16 12:01:39;;;;;;;16.00;12.23;;;;;16.10;101654.00;;;;10491267;28;20197;-77
2022/03/16 12:07:12;;;;;;;15.97;11.70;;;;;16.00;101651.00;;;;10513848;28;20206;-77
2022/03/16 12:17:51;;;;;;;16.67;11.77;;;;;15.90;101649.00;;;;10480169;28;20213;-77
2022/03/16 12:23:07;;;;;;;15.00;12.40;;;;;15.90;101636.00;;;;10500921;28;20961;-76
2022/03/16 12:33:45;;;;;;;12.70;10.27;;;;;16.10;101618.00;;;;10535593;28;20699;-76
2022/03/16 12:39:03;;;;;;;14.40;11.07;;;;;16.30;101608.00;;;;10508167;28;20230;-77
2022/03/16 12:44:09;;;;;;;14.60;12.27;;;;;16.40;101604.00;;;;10492490;28;20189;-76
2022/03/16 12:49:11;;;;;;;14.80;12.17;;;;;16.40;101601.00;;;;10482023;28;20185;-77
2022/03/16 12:54:20;;;;;;;14.33;11.70;;;;;16.40;101585.00;;;;10521784;28;20249;-77
2022/03/16 12:59:29;;;;;;;14.50;10.77;;;;;16.60;101583.00;;;;10524142;28;20204;-78
2022/03/16 13:04:32;;;;;;;16.67;11.70;;;;;16.80;101561.00;;;;10514405;28;20205;-78
2022/03/16 13:09:36;;;;;;;13.90;11.93;;;;;16.90;101554.00;;;;10500924;28;20711;-78
2022/03/16 13:14:44;;;;;;;16.10;11.53;;;;;16.60;101535.00;;;;10534900;28;20705;-77
2022/03/16 13:19:55;;;;;;;16.37;11.33;;;;;16.30;101527.00;;;;10518457;28;20250;-78
2022/03/16 13:24:58;;;;;;;13.07;11.10;;;;;16.00;101514.00;;;;10496894;28;20284;-77
2022/03/16 13:30:12;;;;;;;14.90;11.70;;;;;15.90;101517.00;;;;10505533;28;20181;-78
2022/03/16 13:35:18;;;;;;;17.87;12.43;;;;;15.90;101497.00;;;;10524094;28;20279;-77
2022/03/16 13:40:25;;;;;;;15.60;12.53;;;;;15.70;101490.00;;;;10504759;28;20213;-77
2022/03/16 13:45:30;;;;;;;18.73;13.70;;;;;15.80;101479.00;;;;10502258;28;20185;-78
2022/03/16 13:50:33;;;;;;;16.67;12.03;;;;;15.70;101467.00;;;;10482615;28;20195;-77
2022/03/16 13:55:35;;;;;;;14.83;12.30;;;;;15.60;101460.00;;;;10483815;28;20663;-78
2022/03/16 14:00:48;;;;;;;18.10;12.83;;;;;15.60;101454.00;;;;10503546;28;20251;-77
2022/03/16 14:05:52;;;;;;;19.77;14.47;;;;;15.60;101451.00;;;;10504669;28;20191;-77
2022/03/16 14:10:54;;;;;;;16.33;12.77;;;;;15.60;101455.00;;;;10528268;28;20197;-77
2022/03/16 14:16:22;;;;;;;16.83;12.33;;;;;15.50;101445.00;;;;10512806;28;20181;-77
2022/03/16 14:21:24;;;;;;;15.97;12.33;;;;;15.50;101440.00;;;;10473763;28;20211;-76
2022/03/16 14:26:26;;;;;;;18.80;11.77;;;;;15.30;101432.00;;;;10510429;28;20196;-77
2022/03/16 14:31:28;;;;;;;16.33;11.23;;;;;15.20;101430.00;;;;10522643;28;20655;-76
2022/03/16 14:36:32;;;;;;;16.23;11.90;;;;;15.00;101426.00;;;;10501806;28;20206;-77
2022/03/16 14:41:54;;;;;;;17.07;11.93;;;;;15.00;101426.00;;;;10486198;28;21027;-77
2022/03/16 14:46:59;;;;;;;12.77;10.47;;;;;14.90;101427.00;;;;10527019;28;20196;-76
2022/03/16 14:52:02;;;;;;;15.77;10.97;;;;;14.80;101454.00;;;;10492837;28;20577;-77
2022/03/16 14:57:04;;;;;;;13.67;11.00;;;;;14.70;101445.00;;;;10504147;28;20605;-77
2022/03/16 15:02:06;;;;;;;16.07;10.37;;;;;14.70;101440.00;;;;10510051;28;20246;-76
2022/03/16 15:07:08;;;;;;;17.80;10.80;;;;;14.80;101440.00;;;;10531543;28;20197;-76
2022/03/16 15:12:11;;;;;;;14.67;10.03;;;;;14.90;101449.00;;;;10510358;28;20249;-76
2022/03/16 15:17:13;;;;;;;14.50;11.17;;;;;14.80;101438.00;;;;10512311;28;20220;-76
2022/03/16 15:22:15;;;;;;;17.53;11.70;;;;;14.80;101426.00;;;;10497136;28;20746;-77
2022/03/16 15:27:17;;;;;;;14.50;10.53;;;;;14.80;101428.00;;;;10524186;28;20196;-76
2022/03/16 15:32:20;;;;;;;15.80;10.10;;;;;14.80;101426.00;;;;10494851;28;20200;-76
2022/03/16 15:37:23;;;;;;;16.23;11.17;;;;;14.80;101417.00;;;;10542413;28;20244;-77
2022/03/16 15:42:46;;;;;;;14.97;11.07;;;;;14.70;101424.00;;;;10528880;28;20220;-76
2022/03/16 15:47:49;;;;;;;14.00;10.37;;;;;14.70;101413.00;;;;10526371;28;20189;-77
2022/03/16 15:52:51;;;;;;;12.90;10.37;;;;;14.50;101405.00;;;;10524306;28;20256;-77
2022/03/16 15:57:56;;;;;;;16.63;10.17;;;;;14.40;101402.00;;;;10492008;28;20212;-77
2022/03/16 16:03:01;;;;;;;23.87;11.63;;;;;14.30;101397.00;;;;10508210;28;20200;-77
2022/03/16 16:08:04;;;;;;;13.17;10.67;;;;;14.10;101395.00;;;;10524653;28;20839;-77
2022/03/16 16:13:08;;;;;;;12.40;10.07;;;;;13.90;101374.00;;;;10524266;28;20227;-77
2022/03/16 16:18:09;;;;;;;13.33;11.07;;;;;13.80;101382.00;;;;10512931;28;20201;-77
2022/03/16 16:23:15;;;;;;;15.57;10.47;;;;;13.70;101387.00;;;;10489558;28;20181;-77
2022/03/16 16:28:18;;;;;;;17.83;10.57;;;;;13.50;101374.00;;;;10478034;28;20204;-75
2022/03/16 16:33:24;;;;;;;16.63;11.87;;;;;13.40;101372.00;;;;10474980;28;20201;-76
2022/03/16 16:38:27;;;;;;;17.33;11.47;;;;;13.30;101352.00;;;;10531958;28;20294;-76
2022/03/16 16:43:30;;;;;;;17.57;12.40;;;;;13.20;101334.00;;;;10506049;28;20670;-76
2022/03/16 16:48:32;;;;;;;16.23;11.37;;;;;13.10;101328.00;;;;10503447;28;20189;-77
2022/03/16 16:53:36;;;;;;;15.33;10.70;;;;;13.00;101340.00;;;;10505700;28;20283;-76
2022/03/16 16:58:42;;;;;;;18.43;12.30;;;;;12.80;101336.00;;;;10505020;28;20215;-77
2022/03/16 17:03:46;;;;;;;16.63;11.90;;;;;12.70;101330.00;;;;10533757;28;20196;-77
2022/03/16 17:08:48;;;;;;;16.17;12.20;;;;;12.50;101335.00;;;;10524253;28;20274;-77
2022/03/16 17:13:52;;;;;;;18.33;13.27;;;;;12.40;101338.00;;;;10523362;28;20212;-77
2022/03/16 17:18:56;;;;;;;17.00;12.40;;;;;12.30;101327.00;;;;10486713;28;20205;-76
2022/03/16 17:23:59;;;;;;;17.10;11.67;;;;;12.20;101336.00;;;;10500559;28;20678;-77
2022/03/16 17:29:03;;;;;;;17.23;11.80;;;;;12.10;101348.00;;;;10482234;28;20195;-76
2022/03/16 17:34:05;;;;;;;19.10;11.63;;;;;12.00;101338.00;;;;10490656;28;20189;-76
2022/03/16 17:39:07;;;;;;;16.27;12.93;;;;;11.90;101345.00;;;;10509619;28;20291;-77
2022/03/16 17:49:29;;;;;;;17.13;12.50;;;;;11.70;101321.00;;;;10512022;28;20208;-76
2022/03/16 17:54:31;;;;;;;16.67;12.47;;;;;11.60;101305.00;;;;10523248;28;20189;-76
2022/03/16 17:59:33;;;;;;;18.97;13.63;;;;;11.60;101300.00;;;;10478340;28;20202;-76
2022/03/16 18:04:35;;;;;;;15.47;11.97;;;;;11.60;101299.00;;;;10489552;28;20208;-76
2022/03/16 18:12:58;;;;;;;17.70;13.23;;;;;11.60;101297.00;;;;10499737;28;20204;-76
2022/03/16 18:14:59;;;;;;;18.03;13.03;;;;;11.60;101289.00;;;;10503695;28;20197;-76
2022/03/16 18:20:01;;;;;;;21.47;13.70;;;;;11.50;101296.00;;;;10503119;28;20200;-76
2022/03/16 18:25:03;;;;;;;16.60;12.80;;;;;11.50;101293.00;;;;10486837;28;20606;-76
2022/03/16 18:30:05;;;;;;;17.50;12.77;;;;;11.50;101301.00;;;;10491175;28;20188;-76
2022/03/16 18:35:08;;;;;;;19.13;14.20;;;;;11.60;101295.00;;;;10486241;28;20197;-76
2022/03/16 18:40:17;;;;;;;22.03;13.13;;;;;11.60;101292.00;;;;10470373;28;20220;-76
2022/03/16 18:45:21;;;;;;;16.83;13.10;;;;;11.60;101308.00;;;;10503682;28;20185;-76
2022/03/16 18:50:25;;;;;;;16.40;12.70;;;;;11.50;101310.00;;;;10486261;28;20193;-76
2022/03/16 18:55:29;;;;;;;20.50;13.47;;;;;11.50;101307.00;;;;10486104;28;20197;-76
2022/03/16 19:00:32;;;;;;;17.27;12.53;;;;;11.50;101319.00;;;;10500898;28;20204;-77
2022/03/16 19:05:36;;;;;;;20.47;13.73;;;;;11.50;101322.00;;;;10463305;28;20395;-77
2022/03/16 19:10:43;;;;;;;21.67;13.13;;;;;11.40;101327.00;;;;10468485;28;20180;-76
2022/03/16 19:15:45;;;;;;;23.53;13.13;;;;;11.40;101319.00;;;;10485051;28;20201;-76
2022/03/16 19:20:47;;;;;;;21.53;13.87;;;;;11.30;101329.00;;;;10501427;28;20215;-76
2022/03/16 19:25:51;;;;;;;20.33;14.47;;;;;11.30;101326.00;;;;10485198;28;20238;-76
2022/03/16 19:30:59;;;;;;;22.37;14.63;;;;;11.20;101320.00;;;;10484813;28;20723;-76
2022/03/16 19:36:03;;;;;;;18.63;13.83;;;;;11.20;101327.00;;;;10485066;28;20207;-76
2022/03/16 19:41:05;;;;;;;21.07;14.20;;;;;11.10;101318.00;;;;10484162;28;20221;-76
2022/03/16 19:46:07;;;;;;;22.47;14.03;;;;;11.10;101323.00;;;;10501726;28;20522;-76
2022/03/16 19:51:10;;;;;;;21.63;14.83;;;;;11.00;101330.00;;;;10500560;28;20220;-77
2022/03/16 19:56:13;;;;;;;18.37;14.27;;;;;11.00;101326.00;;;;10517989;28;20314;-76
2022/03/16 20:01:15;;;;;;;22.27;16.30;;;;;10.90;101318.00;;;;10514534;28;20216;-76
2022/03/16 20:06:17;;;;;;;22.30;15.43;;;;;10.90;101333.00;;;;10501025;28;20208;-76
2022/03/16 20:11:19;;;;;;;23.03;15.23;;;;;10.80;101322.00;;;;10475715;28;20182;-76
2022/03/16 20:16:21;;;;;;;21.27;15.90;;;;;10.80;101324.00;;;;10492572;28;20671;-76
2022/03/16 20:21:23;;;;;;;21.70;15.80;;;;;10.70;101328.00;;;;10485968;28;20287;-76
2022/03/16 20:26:26;;;;;;;23.60;16.53;;;;;10.70;101336.00;;;;10508712;28;20231;-76
2022/03/16 20:31:31;;;;;;;22.47;16.60;;;;;10.70;101338.00;;;;10508257;28;20189;-76
2022/03/16 20:36:33;;;;;;;26.13;17.70;;;;;10.70;101344.00;;;;10524325;28;20188;-76
2022/03/16 20:41:38;;;;;;;28.00;18.83;;;;;10.70;101349.00;;;;10473732;28;20217;-76
2022/03/16 20:46:40;;;;;;;24.63;17.37;;;;;10.70;101344.00;;;;10507218;28;20193;-75
2022/03/16 20:51:44;;;;;;;22.10;16.80;;;;;10.70;101349.00;;;;10490568;28;20192;-76
2022/03/16 20:56:46;;;;;;;22.33;16.73;;;;;10.70;101346.00;;;;10489729;28;20196;-76
2022/03/16 21:01:49;;;;;;;24.23;17.10;;;;;10.60;101342.00;;;;10490992;28;20206;-76
2022/03/16 21:06:51;;;;;;;22.10;16.97;;;;;10.60;101337.00;;;;10499810;28;20220;-76
2022/03/16 21:11:53;;;;;;;23.77;16.90;;;;;10.50;101342.00;;;;10488824;28;20640;-76
2022/03/16 21:16:55;;;;;;;26.20;17.63;;;;;10.40;101345.00;;;;10489944;28;20207;-77
2022/03/16 21:21:57;;;;;;;23.93;17.17;;;;;10.40;101362.00;;;;10488874;28;20211;-77
2022/03/16 21:27:00;;;;;;;24.43;17.73;;;;;10.40;101362.00;;;;10507581;28;20246;-77
2022/03/16 21:32:02;;;;;;;30.30;20.43;;;;;10.40;101361.00;;;;10505984;28;20185;-77
2022/03/16 21:37:07;;;;;;;29.50;19.77;;;;;10.40;101374.00;;;;10506750;28;20196;-77
2022/03/16 21:47:29;;;;;;;28.00;18.37;;;;;10.30;101372.00;;;;10506906;28;20193;-77
2022/03/16 21:52:31;;;;;;;27.53;18.77;;;;;10.30;101372.00;;;;10489962;28;20648;-76
2022/03/16 21:57:33;;;;;;;25.47;17.77;;;;;10.20;101372.00;;;;10468273;28;20193;-77
2022/03/16 22:02:35;;;;;;;26.13;19.53;;;;;10.20;101367.00;;;;10454866;28;20695;-77
2022/03/16 22:07:38;;;;;;;29.50;20.10;;;;;10.40;101369.00;;;;10472524;28;20228;-77
2022/03/16 22:12:46;;;;;;;26.93;19.60;;;;;10.70;101371.00;;;;10488367;28;20398;-76
2022/03/16 22:17:48;;;;;;;26.87;19.17;;;;;10.80;101375.00;;;;10471529;28;20779;-77
2022/03/16 22:22:50;;;;;;;27.90;19.07;;;;;10.80;101378.00;;;;10487735;28;20201;-78
2022/03/16 22:27:51;;;;;;;23.87;17.27;;;;;10.90;101376.00;;;;10472000;28;20197;-77
2022/03/16 22:32:53;;;;;;;25.23;17.83;;;;;10.90;101377.00;;;;10504602;28;20199;-77
2022/03/16 22:37:56;;;;;;;26.33;18.57;;;;;10.90;101385.00;;;;10487378;28;20702;-77
2022/03/16 22:42:58;;;;;;;30.70;19.80;;;;;10.90;101381.00;;;;10487299;28;20232;-77
2022/03/16 22:48:00;;;;;;;23.53;17.87;;;;;11.00;101387.00;;;;10487078;28;20185;-75
2022/03/16 22:53:02;;;;;;;30.03;19.57;;;;;11.00;101377.00;;;;10502393;28;20184;-77
2022/03/16 22:58:04;;;;;;;30.47;19.07;;;;;11.10;101387.00;;;;10490055;28;20210;-77
2022/03/16 23:03:09;;;;;;;25.63;18.43;;;;;11.20;101393.00;;;;10486016;28;20192;-77
2022/03/16 23:08:12;;;;;;;30.77;20.53;;;;;11.20;101391.00;;;;10487312;28;20267;-77
2022/03/16 23:13:14;;;;;;;28.20;20.13;;;;;11.20;101389.00;;;;10520487;28;20192;-77
2022/03/16 23:18:16;;;;;;;29.43;19.97;;;;;11.20;101393.00;;;;10503203;28;20212;-78
2022/03/16 23:23:18;;;;;;;26.07;19.13;;;;;11.20;101392.00;;;;10486818;28;20637;-77
2022/03/16 23:28:22;;;;;;;28.37;19.50;;;;;11.30;101399.00;;;;10470452;28;20217;-77
2022/03/16 23:33:24;;;;;;;23.03;18.20;;;;;11.40;101391.00;;;;10503190;28;20196;-77
2022/03/16 23:38:26;;;;;;;28.33;20.07;;;;;11.40;101393.00;;;;10503202;28;20217;-77
2022/03/16 23:43:30;;;;;;;31.07;20.97;;;;;11.40;101388.00;;;;10502816;28;20225;-77
2022/03/16 23:48:32;;;;;;;28.30;19.80;;;;;11.50;101390.00;;;;10470111;28;20230;-77
2022/03/16 23:53:33;;;;;;;28.63;20.20;;;;;11.50;101386.00;;;;10461407;28;20198;-77
2022/03/16 23:58:35;;;;;;;32.40;21.70;;;;;11.60;101384.00;;;;10507809;28;20269;-77
